sensor_id;sensor_type;location;lat;lon;timestamp;pressure;altitude;pressure_sealevel;temperature;humidity
73700;BME280;62005;50.082;8.988;2022-10-16T00:01:20;100225.91;;;15.92;91.90
73700;BME280;62005;50.082;8.988;2022-10-16T00:03:46;100206.22;;;15.80;91.61
73700;BME280;62005;50.082;8.988;2022-10-16T00:06:13;100228.63;;;15.92;91.97
73700;BME280;62005;50.082;8.988;2022-10-16T00:08:39;100213.91;;;15.88;92.13
73700;BME280;62005;50.082;8.988;2022-10-16T00:11:13;100216.06;;;15.86;92.16
73700;BME280;62005;50.082;8.988;2022-10-16T00:13:41;100208.69;;;15.81;91.96
73700;BME280;62005;50.082;8.988;2022-10-16T00:16:08;100231.38;;;15.92;91.93
73700;BME280;62005;50.082;8.988;2022-10-16T00:18:34;100186.47;;;15.68;91.98
73700;BME280;62005;50.082;8.988;2022-10-16T00:21:10;100206.78;;;15.87;91.98
73700;BME280;62005;50.082;8.988;2022-10-16T00:23:36;100193.66;;;15.79;91.99
73700;BME280;62005;50.082;8.988;2022-10-16T00:26:05;100201.34;;;15.87;91.91
73700;BME280;62005;50.082;8.988;2022-10-16T00:28:31;100157.50;;;15.56;91.96
73700;BME280;62005;50.082;8.988;2022-10-16T00:30:57;100183.19;;;15.65;92.14
73700;BME280;62005;50.082;8.988;2022-10-16T00:33:22;100174.97;;;15.60;92.00
73700;BME280;62005;50.082;8.988;2022-10-16T00:35:48;100173.91;;;15.61;92.36
73700;BME280;62005;50.082;8.988;2022-10-16T00:38:14;100227.50;;;15.83;92.12
73700;BME280;62005;50.082;8.988;2022-10-16T00:40:39;100213.81;;;15.78;92.61
73700;BME280;62005;50.082;8.988;2022-10-16T00:43:37;100200.72;;;15.75;92.57
73700;BME280;62005;50.082;8.988;2022-10-16T00:49:09;100207.84;;;15.81;92.56
73700;BME280;62005;50.082;8.988;2022-10-16T00:51:43;100215.97;;;15.76;92.72
73700;BME280;62005;50.082;8.988;2022-10-16T00:54:13;100230.78;;;15.85;93.31
73700;BME280;62005;50.082;8.988;2022-10-16T00:56:41;100219.84;;;15.80;92.90
73700;BME280;62005;50.082;8.988;2022-10-16T00:59:19;100222.03;;;15.83;92.54
73700;BME280;62005;50.082;8.988;2022-10-16T01:01:45;100209.97;;;15.74;93.21
73700;BME280;62005;50.082;8.988;2022-10-16T01:04:11;100225.88;;;15.87;93.15
73700;BME280;62005;50.082;8.988;2022-10-16T01:09:37;100213.50;;;15.74;93.23
73700;BME280;62005;50.082;8.988;2022-10-16T01:17:06;100212.19;;;15.77;93.77
73700;BME280;62005;50.082;8.988;2022-10-16T01:22:16;100215.44;;;15.79;93.95
73700;BME280;62005;50.082;8.988;2022-10-16T01:24:48;100190.22;;;15.56;93.70
73700;BME280;62005;50.082;8.988;2022-10-16T01:29:59;100242.78;;;15.89;93.83
73700;BME280;62005;50.082;8.988;2022-10-16T01:35:18;100246.00;;;15.81;94.04
73700;BME280;62005;50.082;8.988;2022-10-16T01:37:53;100260.81;;;15.90;93.80
73700;BME280;62005;50.082;8.988;2022-10-16T01:40:24;100261.88;;;15.89;94.36
73700;BME280;62005;50.082;8.988;2022-10-16T01:43:14;100258.03;;;15.85;93.77
73700;BME280;62005;50.082;8.988;2022-10-16T01:45:41;100230.66;;;15.70;93.83
73700;BME280;62005;50.082;8.988;2022-10-16T01:48:07;100267.91;;;15.91;93.80
73700;BME280;62005;50.082;8.988;2022-10-16T01:50:37;100247.63;;;15.77;94.19
73700;BME280;62005;50.082;8.988;2022-10-16T01:53:07;100246.00;;;15.81;94.36
73700;BME280;62005;50.082;8.988;2022-10-16T01:55:38;100239.44;;;15.77;94.69
73700;BME280;62005;50.082;8.988;2022-10-16T01:58:09;100247.34;;;15.78;94.71
73700;BME280;62005;50.082;8.988;2022-10-16T02:00:38;100228.25;;;15.73;95.02
73700;BME280;62005;50.082;8.988;2022-10-16T02:03:05;100247.13;;;15.85;95.26
73700;BME280;62005;50.082;8.988;2022-10-16T02:05:41;100247.09;;;15.80;94.85
73700;BME280;62005;50.082;8.988;2022-10-16T02:08:08;100241.69;;;15.85;95.13
73700;BME280;62005;50.082;8.988;2022-10-16T02:10:35;100221.94;;;15.73;95.56
73700;BME280;62005;50.082;8.988;2022-10-16T02:13:26;100218.56;;;15.60;95.07
73700;BME280;62005;50.082;8.988;2022-10-16T02:15:52;100208.72;;;15.54;94.37
73700;BME280;62005;50.082;8.988;2022-10-16T02:18:18;100247.00;;;15.70;94.23
73700;BME280;62005;50.082;8.988;2022-10-16T02:20:51;100257.38;;;15.73;94.51
73700;BME280;62005;50.082;8.988;2022-10-16T02:23:58;100274.94;;;15.82;94.47
73700;BME280;62005;50.082;8.988;2022-10-16T02:26:49;100287.47;;;15.83;94.45
73700;BME280;62005;50.082;8.988;2022-10-16T02:29:18;100278.72;;;15.81;94.45
73700;BME280;62005;50.082;8.988;2022-10-16T02:31:50;100282.00;;;15.83;94.00
73700;BME280;62005;50.082;8.988;2022-10-16T02:34:18;100282.00;;;15.83;94.12
73700;BME280;62005;50.082;8.988;2022-10-16T02:36:47;100269.47;;;15.82;94.11
73700;BME280;62005;50.082;8.988;2022-10-16T02:39:16;100235.44;;;15.57;93.85
73700;BME280;62005;50.082;8.988;2022-10-16T02:41:42;100267.81;;;15.81;93.57
73700;BME280;62005;50.082;8.988;2022-10-16T02:44:10;100270.53;;;15.81;93.54
73700;BME280;62005;50.082;8.988;2022-10-16T02:46:36;100267.25;;;15.79;94.06
73700;BME280;62005;50.082;8.988;2022-10-16T02:49:01;100234.34;;;15.58;93.95
73700;BME280;62005;50.082;8.988;2022-10-16T02:51:30;100227.78;;;15.54;94.03
73700;BME280;62005;50.082;8.988;2022-10-16T02:53:55;100262.88;;;15.78;93.78
73700;BME280;62005;50.082;8.988;2022-10-16T02:56:21;100265.34;;;15.79;93.62
73700;BME280;62005;50.082;8.988;2022-10-16T02:58:46;100248.91;;;15.69;93.97
73700;BME280;62005;50.082;8.988;2022-10-16T03:01:12;100234.41;;;15.63;93.42
73700;BME280;62005;50.082;8.988;2022-10-16T03:03:39;100255.28;;;15.80;93.60
73700;BME280;62005;50.082;8.988;2022-10-16T03:06:04;100249.72;;;15.70;93.38
73700;BME280;62005;50.082;8.988;2022-10-16T03:08:33;100273.78;;;15.78;93.31
73700;BME280;62005;50.082;8.988;2022-10-16T03:10:59;100273.78;;;15.78;93.26
73700;BME280;62005;50.082;8.988;2022-10-16T03:13:25;100284.16;;;15.81;93.05
73700;BME280;62005;50.082;8.988;2022-10-16T03:15:50;100291.28;;;15.82;93.28
73700;BME280;62005;50.082;8.988;2022-10-16T03:18:16;100262.16;;;15.60;93.25
73700;BME280;62005;50.082;8.988;2022-10-16T03:20:42;100271.53;;;15.70;93.23
73700;BME280;62005;50.082;8.988;2022-10-16T03:23:08;100293.44;;;15.80;93.19
73700;BME280;62005;50.082;8.988;2022-10-16T03:25:34;100295.59;;;15.78;93.07
73700;BME280;62005;50.082;8.988;2022-10-16T03:28:10;100262.16;;;15.60;93.29
73700;BME280;62005;50.082;8.988;2022-10-16T03:30:36;100290.03;;;15.68;93.57
73700;BME280;62005;50.082;8.988;2022-10-16T03:33:01;100290.88;;;15.68;93.40
73700;BME280;62005;50.082;8.988;2022-10-16T03:35:29;100281.28;;;15.65;93.65
73700;BME280;62005;50.082;8.988;2022-10-16T03:37:55;100259.38;;;15.55;93.41
73700;BME280;62005;50.082;8.988;2022-10-16T03:40:20;100245.13;;;15.43;93.57
73700;BME280;62005;50.082;8.988;2022-10-16T03:42:46;100299.84;;;15.68;93.39
73700;BME280;62005;50.082;8.988;2022-10-16T03:45:11;100307.00;;;15.75;93.42
73700;BME280;62005;50.082;8.988;2022-10-16T03:47:39;100308.66;;;15.76;93.50
73700;BME280;62005;50.082;8.988;2022-10-16T03:50:06;100307.00;;;15.75;93.78
73700;BME280;62005;50.082;8.988;2022-10-16T03:52:32;100291.88;;;15.62;93.77
73700;BME280;62005;50.082;8.988;2022-10-16T03:54:58;100305.91;;;15.76;93.54
73700;BME280;62005;50.082;8.988;2022-10-16T03:57:24;100304.03;;;15.76;93.77
73700;BME280;62005;50.082;8.988;2022-10-16T03:59:49;100276.88;;;15.59;93.81
73700;BME280;62005;50.082;8.988;2022-10-16T04:02:15;100275.22;;;15.58;93.47
73700;BME280;62005;50.082;8.988;2022-10-16T04:04:41;100279.34;;;15.61;93.98
73700;BME280;62005;50.082;8.988;2022-10-16T04:07:06;100310.81;;;15.74;93.81
73700;BME280;62005;50.082;8.988;2022-10-16T04:09:32;100293.22;;;15.59;93.83
73700;BME280;62005;50.082;8.988;2022-10-16T04:11:57;100317.91;;;15.75;93.77
73700;BME280;62005;50.082;8.988;2022-10-16T04:14:23;100316.78;;;15.71;94.00
73700;BME280;62005;50.082;8.988;2022-10-16T04:16:48;100335.91;;;15.76;93.87
73700;BME280;62005;50.082;8.988;2022-10-16T04:19:14;100299.25;;;15.61;93.78
73700;BME280;62005;50.082;8.988;2022-10-16T04:21:40;100312.47;;;15.75;94.15
73700;BME280;62005;50.082;8.988;2022-10-16T04:24:05;100293.84;;;15.67;93.84
73700;BME280;62005;50.082;8.988;2022-10-16T04:26:33;100302.13;;;15.77;93.99
73700;BME280;62005;50.082;8.988;2022-10-16T04:28:59;100311.94;;;15.78;93.95
73700;BME280;62005;50.082;8.988;2022-10-16T04:31:25;100314.00;;;15.65;94.33
73700;BME280;62005;50.082;8.988;2022-10-16T04:33:51;100337.56;;;15.77;93.91
73700;BME280;62005;50.082;8.988;2022-10-16T04:36:16;100340.84;;;15.79;93.47
73700;BME280;62005;50.082;8.988;2022-10-16T04:38:42;100305.75;;;15.60;93.54
73700;BME280;62005;50.082;8.988;2022-10-16T04:41:10;100334.31;;;15.80;93.73
73700;BME280;62005;50.082;8.988;2022-10-16T04:46:29;100347.94;;;15.80;93.89
73700;BME280;62005;50.082;8.988;2022-10-16T04:48:55;100314.81;;;15.66;93.40
73700;BME280;62005;50.082;8.988;2022-10-16T04:51:20;100341.97;;;15.83;93.67
73700;BME280;62005;50.082;8.988;2022-10-16T04:53:46;100318.44;;;15.72;93.84
73700;BME280;62005;50.082;8.988;2022-10-16T04:56:11;100289.94;;;15.57;94.19
73700;BME280;62005;50.082;8.988;2022-10-16T04:58:37;100320.59;;;15.70;93.82
73700;BME280;62005;50.082;8.988;2022-10-16T05:01:02;100305.25;;;15.63;93.58
73700;BME280;62005;50.082;8.988;2022-10-16T05:03:30;100336.53;;;15.83;93.84
73700;BME280;62005;50.082;8.988;2022-10-16T05:05:56;100307.22;;;15.68;93.74
73700;BME280;62005;50.082;8.988;2022-10-16T05:08:21;100336.53;;;15.83;93.97
73700;BME280;62005;50.082;8.988;2022-10-16T05:10:48;100319.75;;;15.69;94.04
73700;BME280;62005;50.082;8.988;2022-10-16T05:13:13;100324.16;;;15.75;93.81
73700;BME280;62005;50.082;8.988;2022-10-16T05:15:39;100340.34;;;15.82;93.98
73700;BME280;62005;50.082;8.988;2022-10-16T05:18:05;100321.69;;;15.74;93.89
73700;BME280;62005;50.082;8.988;2022-10-16T05:20:30;100289.63;;;15.54;93.97
73700;BME280;62005;50.082;8.988;2022-10-16T05:22:56;100329.13;;;15.78;93.97
73700;BME280;62005;50.082;8.988;2022-10-16T05:25:21;100306.38;;;15.68;94.32
73700;BME280;62005;50.082;8.988;2022-10-16T05:27:48;100329.44;;;15.82;94.11
73700;BME280;62005;50.082;8.988;2022-10-16T05:30:14;100324.47;;;15.79;93.99
73700;BME280;62005;50.082;8.988;2022-10-16T05:32:45;100336.53;;;15.83;93.97
73700;BME280;62005;50.082;8.988;2022-10-16T05:35:11;100294.88;;;15.60;93.76
73700;BME280;62005;50.082;8.988;2022-10-16T05:37:36;100311.06;;;15.72;93.90
73700;BME280;62005;50.082;8.988;2022-10-16T05:40:02;100309.16;;;15.73;94.12
73700;BME280;62005;50.082;8.988;2022-10-16T05:42:30;100330.75;;;15.79;94.03
73700;BME280;62005;50.082;8.988;2022-10-16T05:44:55;100301.97;;;15.61;94.13
73700;BME280;62005;50.082;8.988;2022-10-16T05:50:06;100345.78;;;15.82;94.02
73700;BME280;62005;50.082;8.988;2022-10-16T05:52:32;100345.78;;;15.82;94.19
73700;BME280;62005;50.082;8.988;2022-10-16T05:54:58;100343.63;;;15.84;93.76
73700;BME280;62005;50.082;8.988;2022-10-16T05:57:24;100322.78;;;15.73;93.98
73700;BME280;62005;50.082;8.988;2022-10-16T05:59:50;100335.38;;;15.79;93.89
73700;BME280;62005;50.082;8.988;2022-10-16T06:02:16;100328.28;;;15.78;93.90
73700;BME280;62005;50.082;8.988;2022-10-16T06:04:41;100317.81;;;15.64;93.89
73700;BME280;62005;50.082;8.988;2022-10-16T06:07:07;100307.69;;;15.60;93.93
73700;BME280;62005;50.082;8.988;2022-10-16T06:09:32;100326.63;;;15.72;93.69
73700;BME280;62005;50.082;8.988;2022-10-16T06:12:01;100327.66;;;15.71;94.17
73700;BME280;62005;50.082;8.988;2022-10-16T06:14:26;100334.16;;;15.64;93.74
73700;BME280;62005;50.082;8.988;2022-10-16T06:16:52;100346.50;;;15.72;93.88
73700;BME280;62005;50.082;8.988;2022-10-16T06:19:20;100380.25;;;15.93;93.90
73700;BME280;62005;50.082;8.988;2022-10-16T06:21:48;100352.78;;;15.73;94.00
73700;BME280;62005;50.082;8.988;2022-10-16T06:24:15;100359.38;;;15.77;93.93
73700;BME280;62005;50.082;8.988;2022-10-16T06:26:43;100384.03;;;15.92;94.12
73700;BME280;62005;50.082;8.988;2022-10-16T06:29:08;100359.84;;;15.74;94.49
73700;BME280;62005;50.082;8.988;2022-10-16T06:31:34;100369.75;;;15.80;94.49
73700;BME280;62005;50.082;8.988;2022-10-16T06:34:01;100363.38;;;15.69;94.75
73700;BME280;62005;50.082;8.988;2022-10-16T06:36:30;100391.69;;;15.90;94.53
73700;BME280;62005;50.082;8.988;2022-10-16T06:38:56;100379.56;;;15.81;94.41
73700;BME280;62005;50.082;8.988;2022-10-16T06:41:22;100387.22;;;15.84;94.69
73700;BME280;62005;50.082;8.988;2022-10-16T06:48:06;100361.47;;;15.70;94.85
73700;BME280;62005;50.082;8.988;2022-10-16T06:51:06;100391.72;;;15.95;94.51
73700;BME280;62005;50.082;8.988;2022-10-16T06:53:44;100407.63;;;16.03;94.45
73700;BME280;62005;50.082;8.988;2022-10-16T06:56:26;100412.25;;;16.02;94.33
73700;BME280;62005;50.082;8.988;2022-10-16T06:59:09;100411.97;;;16.04;94.52
73700;BME280;62005;50.082;8.988;2022-10-16T07:04:15;100383.97;;;15.82;94.67
73700;BME280;62005;50.082;8.988;2022-10-16T07:06:46;100412.56;;;16.06;94.36
73700;BME280;62005;50.082;8.988;2022-10-16T07:09:15;100369.25;;;15.83;94.89
73700;BME280;62005;50.082;8.988;2022-10-16T07:11:45;100415.34;;;16.11;94.88
73700;BME280;62005;50.082;8.988;2022-10-16T07:14:21;100389.00;;;15.95;94.83
73700;BME280;62005;50.082;8.988;2022-10-16T07:16:48;100403.03;;;16.08;94.95
73700;BME280;62005;50.082;8.988;2022-10-16T07:19:18;100383.84;;;15.98;94.99
73700;BME280;62005;50.082;8.988;2022-10-16T07:21:48;100402.75;;;16.10;95.22
73700;BME280;62005;50.082;8.988;2022-10-16T07:24:18;100413.19;;;16.13;95.16
73700;BME280;62005;50.082;8.988;2022-10-16T07:26:55;100397.50;;;16.03;95.00
73700;BME280;62005;50.082;8.988;2022-10-16T07:29:21;100439.00;;;16.32;94.94
73700;BME280;62005;50.082;8.988;2022-10-16T07:31:53;100399.50;;;16.08;95.03
73700;BME280;62005;50.082;8.988;2022-10-16T07:34:21;100421.50;;;16.28;94.90
73700;BME280;62005;50.082;8.988;2022-10-16T07:36:55;100428.66;;;16.34;95.03
73700;BME280;62005;50.082;8.988;2022-10-16T07:39:27;100423.19;;;16.34;94.65
73700;BME280;62005;50.082;8.988;2022-10-16T07:42:04;100408.38;;;16.25;94.48
73700;BME280;62005;50.082;8.988;2022-10-16T07:44:31;100410.59;;;16.28;94.44
73700;BME280;62005;50.082;8.988;2022-10-16T07:46:59;100452.91;;;16.57;94.72
73700;BME280;62005;50.082;8.988;2022-10-16T07:49:28;100446.25;;;16.48;94.74
73700;BME280;62005;50.082;8.988;2022-10-16T07:52:14;100485.13;;;16.60;94.63
73700;BME280;62005;50.082;8.988;2022-10-16T07:55:01;100482.41;;;16.60;94.50
73700;BME280;62005;50.082;8.988;2022-10-16T07:57:26;100459.91;;;16.48;94.28
73700;BME280;62005;50.082;8.988;2022-10-16T07:59:53;100486.50;;;16.57;94.59
73700;BME280;62005;50.082;8.988;2022-10-16T08:02:18;100487.81;;;16.55;94.58
73700;BME280;62005;50.082;8.988;2022-10-16T08:04:46;100458.44;;;16.40;94.73
73700;BME280;62005;50.082;8.988;2022-10-16T08:07:12;100447.22;;;16.37;94.89
73700;BME280;62005;50.082;8.988;2022-10-16T08:09:44;100462.63;;;16.48;94.65
73700;BME280;62005;50.082;8.988;2022-10-16T08:12:13;100466.50;;;16.52;94.60
73700;BME280;62005;50.082;8.988;2022-10-16T08:14:39;100453.31;;;16.44;94.59
73700;BME280;62005;50.082;8.988;2022-10-16T08:17:04;100456.13;;;16.49;94.73
73700;BME280;62005;50.082;8.988;2022-10-16T08:19:30;100479.16;;;16.63;94.75
73700;BME280;62005;50.082;8.988;2022-10-16T08:21:56;100450.00;;;16.42;94.53
73700;BME280;62005;50.082;8.988;2022-10-16T08:24:22;100488.38;;;16.57;94.71
73700;BME280;62005;50.082;8.988;2022-10-16T08:26:53;100507.59;;;16.67;94.88
73700;BME280;62005;50.082;8.988;2022-10-16T08:29:18;100489.75;;;16.59;94.99
73700;BME280;62005;50.082;8.988;2022-10-16T08:31:44;100496.06;;;16.60;94.94
73700;BME280;62005;50.082;8.988;2022-10-16T08:34:09;100487.19;;;16.48;95.17
73700;BME280;62005;50.082;8.988;2022-10-16T08:36:36;100511.38;;;16.66;95.17
73700;BME280;62005;50.082;8.988;2022-10-16T08:39:01;100523.97;;;16.67;94.99
73700;BME280;62005;50.082;8.988;2022-10-16T08:47:19;100500.34;;;16.51;94.80
73700;BME280;62005;50.082;8.988;2022-10-16T08:50:09;100560.19;;;16.84;94.90
73700;BME280;62005;50.082;8.988;2022-10-16T08:52:38;100531.06;;;16.68;94.89
73700;BME280;62005;50.082;8.988;2022-10-16T08:55:04;100533.78;;;16.68;94.65
73700;BME280;62005;50.082;8.988;2022-10-16T08:57:35;100557.72;;;16.87;94.72
73700;BME280;62005;50.082;8.988;2022-10-16T09:00:11;100559.41;;;16.88;94.71
73700;BME280;62005;50.082;8.988;2022-10-16T09:03:16;100567.31;;;16.90;94.57
73700;BME280;62005;50.082;8.988;2022-10-16T09:05:46;100570.63;;;16.92;94.83
73700;BME280;62005;50.082;8.988;2022-10-16T09:08:26;100520.03;;;16.58;95.14
73700;BME280;62005;50.082;8.988;2022-10-16T09:11:03;100549.66;;;16.71;94.96
73700;BME280;62005;50.082;8.988;2022-10-16T09:13:50;100533.53;;;16.69;94.98
73700;BME280;62005;50.082;8.988;2022-10-16T09:16:40;100585.44;;;17.01;94.79
73700;BME280;62005;50.082;8.988;2022-10-16T09:19:17;100563.81;;;16.94;94.79
73700;BME280;62005;50.082;8.988;2022-10-16T09:21:46;100584.44;;;17.07;94.78
73700;BME280;62005;50.082;8.988;2022-10-16T09:24:18;100565.75;;;16.99;94.85
73700;BME280;62005;50.082;8.988;2022-10-16T09:26:45;100572.88;;;17.00;94.90
73700;BME280;62005;50.082;8.988;2022-10-16T09:29:18;100585.50;;;17.06;95.11
73700;BME280;62005;50.082;8.988;2022-10-16T09:31:55;100582.22;;;17.09;95.14
73700;BME280;62005;50.082;8.988;2022-10-16T09:34:36;100597.03;;;17.13;94.78
73700;BME280;62005;50.082;8.988;2022-10-16T09:37:10;100576.13;;;16.97;95.10
73700;BME280;62005;50.082;8.988;2022-10-16T09:39:51;100603.88;;;17.16;94.90
73700;BME280;62005;50.082;8.988;2022-10-16T09:42:32;100626.97;;;17.30;94.75
73700;BME280;62005;50.082;8.988;2022-10-16T09:45:03;100607.47;;;17.21;94.95
73700;BME280;62005;50.082;8.988;2022-10-16T09:47:52;100598.72;;;17.19;94.85
73700;BME280;62005;50.082;8.988;2022-10-16T09:50:33;100625.69;;;17.42;95.14
73700;BME280;62005;50.082;8.988;2022-10-16T09:53:04;100622.41;;;17.40;94.81
73700;BME280;62005;50.082;8.988;2022-10-16T09:55:30;100603.25;;;17.35;94.79
73700;BME280;62005;50.082;8.988;2022-10-16T09:57:55;100627.47;;;17.53;95.24
73700;BME280;62005;50.082;8.988;2022-10-16T10:00:23;100633.50;;;17.60;95.03
73700;BME280;62005;50.082;8.988;2022-10-16T10:02:49;100625.56;;;17.59;95.23
73700;BME280;62005;50.082;8.988;2022-10-16T10:05:21;100622.56;;;17.60;94.83
73700;BME280;62005;50.082;8.988;2022-10-16T10:14:48;100638.91;;;17.87;94.36
73700;BME280;62005;50.082;8.988;2022-10-16T10:17:23;100633.69;;;17.85;94.13
73700;BME280;62005;50.082;8.988;2022-10-16T10:20:02;100616.16;;;17.76;94.46
73700;BME280;62005;50.082;8.988;2022-10-16T10:22:42;100616.75;;;17.88;94.72
73700;BME280;62005;50.082;8.988;2022-10-16T10:25:24;100630.50;;;17.98;94.38
73700;BME280;62005;50.082;8.988;2022-10-16T10:38:48;100655.25;;;18.18;94.10
73700;BME280;62005;50.082;8.988;2022-10-16T10:44:23;100638.31;;;18.27;94.04
73700;BME280;62005;50.082;8.988;2022-10-16T10:46:57;100611.97;;;18.10;93.92
73700;BME280;62005;50.082;8.988;2022-10-16T11:01:58;100618.25;;;18.68;94.23
73700;BME280;62005;50.082;8.988;2022-10-16T11:08:02;100556.34;;;18.67;90.94
73700;BME280;62005;50.082;8.988;2022-10-16T11:10:45;100621.63;;;19.10;91.14
73700;BME280;62005;50.082;8.988;2022-10-16T11:13:24;100622.72;;;19.19;90.35
73700;BME280;62005;50.082;8.988;2022-10-16T11:15:55;100614.78;;;19.22;91.53
73700;BME280;62005;50.082;8.988;2022-10-16T11:22:09;100578.34;;;19.17;88.41
73700;BME280;62005;50.082;8.988;2022-10-16T11:25:18;100611.78;;;19.49;88.97
73700;BME280;62005;50.082;8.988;2022-10-16T11:28:01;100618.94;;;19.60;89.18
73700;BME280;62005;50.082;8.988;2022-10-16T11:30:43;100602.50;;;19.55;88.46
73700;BME280;62005;50.082;8.988;2022-10-16T11:33:37;100610.66;;;19.70;86.99
73700;BME280;62005;50.082;8.988;2022-10-16T11:36:22;100620.00;;;19.74;88.37
73700;BME280;62005;50.082;8.988;2022-10-16T11:41:35;100586.03;;;19.55;87.82
73700;BME280;62005;50.082;8.988;2022-10-16T11:47:02;100577.25;;;19.53;88.48
73700;BME280;62005;50.082;8.988;2022-10-16T11:49:33;100619.44;;;19.82;88.29
73700;BME280;62005;50.082;8.988;2022-10-16T11:52:26;100620.53;;;19.86;88.13
73700;BME280;62005;50.082;8.988;2022-10-16T12:05:23;100584.91;;;19.71;87.70
73700;BME280;62005;50.082;8.988;2022-10-16T12:08:06;100590.63;;;19.85;87.53
73700;BME280;62005;50.082;8.988;2022-10-16T12:10:47;100622.13;;;20.07;86.44
73700;BME280;62005;50.082;8.988;2022-10-16T12:14:38;100606.53;;;19.98;86.41
73700;BME280;62005;50.082;8.988;2022-10-16T13:01:34;100642.56;;;20.60;84.03
73700;BME280;62005;50.082;8.988;2022-10-16T13:31:38;100616.34;;;20.24;81.09
73700;BME280;62005;50.082;8.988;2022-10-16T14:02:25;100655.63;;;20.24;80.34
73700;BME280;62005;50.082;8.988;2022-10-16T14:33:33;100619.41;;;19.92;80.56
73700;BME280;62005;50.082;8.988;2022-10-16T14:49:25;100655.66;;;19.94;81.93
73700;BME280;62005;50.082;8.988;2022-10-16T14:54:48;100645.78;;;19.88;81.90
73700;BME280;62005;50.082;8.988;2022-10-16T14:57:23;100600.28;;;19.57;82.13
73700;BME280;62005;50.082;8.988;2022-10-16T15:00:04;100601.38;;;19.56;81.89
73700;BME280;62005;50.082;8.988;2022-10-16T15:02:53;100647.97;;;19.86;81.99
73700;BME280;62005;50.082;8.988;2022-10-16T15:05:24;100647.97;;;19.86;82.05
73700;BME280;62005;50.082;8.988;2022-10-16T15:08:02;100604.69;;;19.53;82.48
73700;BME280;62005;50.082;8.988;2022-10-16T15:10:55;100590.13;;;19.48;82.74
73700;BME280;62005;50.082;8.988;2022-10-16T15:16:02;100624.94;;;19.62;82.61
73700;BME280;62005;50.082;8.988;2022-10-16T15:18:57;100616.19;;;19.60;82.61
73700;BME280;62005;50.082;8.988;2022-10-16T15:21:53;100649.06;;;19.80;82.75
73700;BME280;62005;50.082;8.988;2022-10-16T15:31:24;100637.84;;;19.67;83.27
73700;BME280;62005;50.082;8.988;2022-10-16T17:08:52;100670.84;;;18.70;88.14
73700;BME280;62005;50.082;8.988;2022-10-16T17:11:33;100716.91;;;18.88;88.34
73700;BME280;62005;50.082;8.988;2022-10-16T17:20:52;100724.03;;;18.79;89.10
73700;BME280;62005;50.082;8.988;2022-10-16T17:26:54;100660.25;;;18.37;89.29
73700;BME280;62005;50.082;8.988;2022-10-16T17:29:20;100698.72;;;18.57;88.96
73700;BME280;62005;50.082;8.988;2022-10-16T17:31:46;100681.41;;;18.46;88.50
73700;BME280;62005;50.082;8.988;2022-10-16T17:51:36;100712.81;;;18.34;89.08
73700;BME280;62005;50.082;8.988;2022-10-16T17:54:01;100706.19;;;18.25;89.17
73700;BME280;62005;50.082;8.988;2022-10-16T17:56:28;100735.66;;;18.49;89.31
73700;BME280;62005;50.082;8.988;2022-10-16T17:59:38;100740.56;;;18.47;89.46
73700;BME280;62005;50.082;8.988;2022-10-16T18:02:03;100683.63;;;18.07;89.60
73700;BME280;62005;50.082;8.988;2022-10-16T18:32:27;100759.63;;;18.00;89.04
73700;BME280;62005;50.082;8.988;2022-10-16T18:35:18;100750.28;;;17.91;89.13
73700;BME280;62005;50.082;8.988;2022-10-16T18:58:16;100720.22;;;17.38;88.38
73700;BME280;62005;50.082;8.988;2022-10-16T19:01:02;100733.91;;;17.38;88.47
73700;BME280;62005;50.082;8.988;2022-10-16T19:04:02;100743.16;;;17.37;88.12
73700;BME280;62005;50.082;8.988;2022-10-16T19:06:28;100747.50;;;17.33;88.11
73700;BME280;62005;50.082;8.988;2022-10-16T19:56:27;100736.94;;;16.34;87.94
73700;BME280;62005;50.082;8.988;2022-10-16T20:02:13;100757.25;;;16.43;88.80
73700;BME280;62005;50.082;8.988;2022-10-16T20:04:38;100772.00;;;16.42;88.91
73700;BME280;62005;50.082;8.988;2022-10-16T20:07:04;100812.69;;;16.60;88.43
73700;BME280;62005;50.082;8.988;2022-10-16T20:26:50;100758.81;;;16.01;88.53
73700;BME280;62005;50.082;8.988;2022-10-16T20:29:21;100767.66;;;16.08;88.75
73700;BME280;62005;50.082;8.988;2022-10-16T20:31:47;100808.31;;;16.26;88.71
73700;BME280;62005;50.082;8.988;2022-10-16T20:37:47;100827.41;;;16.26;88.65
73700;BME280;62005;50.082;8.988;2022-10-16T20:51:38;100830.56;;;16.18;88.94
73700;BME280;62005;50.082;8.988;2022-10-16T21:01:26;100836.34;;;16.05;88.66
73700;BME280;62005;50.082;8.988;2022-10-16T22:03:18;100822.72;;;15.20;89.01
73700;BME280;62005;50.082;8.988;2022-10-16T22:12:45;100809.97;;;15.09;89.77
73700;BME280;62005;50.082;8.988;2022-10-16T22:15:10;100790.13;;;14.97;89.70
73700;BME280;62005;50.082;8.988;2022-10-16T23:00:13;100849.00;;;15.26;92.65
73700;BME280;62005;50.082;8.988;2022-10-16T23:02:39;100815.91;;;15.06;92.50
73700;BME280;62005;50.082;8.988;2022-10-16T23:17:19;100875.00;;;15.45;91.97
73700;BME280;62005;50.082;8.988;2022-10-16T23:19:44;100877.50;;;15.47;92.38
73700;BME280;62005;50.082;8.988;2022-10-16T23:33:24;100892.94;;;15.70;91.11
